sensor_id;sensor_type;location;lat;lon;timestamp;pressure;altitude;pressure_sealevel;temperature;humidity
59951;BME280;45812;53.540;9.774;2023-05-23T00:00:18;101284.44;;;16.93;100.00
59951;BME280;45812;53.540;9.774;2023-05-23T00:02:44;101275.53;;;16.93;100.00
59951;BME280;45812;53.540;9.774;2023-05-23T00:05:09;101272.66;;;16.94;100.00
59951;BME280;45812;53.540;9.774;2023-05-23T00:07:34;101279.50;;;16.97;100.00
59951;BME280;45812;53.540;9.774;2023-05-23T00:09:59;101273.09;;;16.98;100.00
59951;BME280;45812;53.540;9.774;2023-05-23T00:12:25;101267.13;;;17.03;100.00
59951;BME280;45812;53.540;9.774;2023-05-23T00:14:51;101266.72;;;17.06;100.00
59951;BME280;45812;53.540;9.774;2023-05-23T00:17:17;101264.47;;;17.09;100.00
59951;BME280;45812;53.540;9.774;2023-05-23T00:19:43;101263.28;;;17.12;100.00
59951;BME280;45812;53.540;9.774;2023-05-23T00:22:10;101259.19;;;17.16;100.00
59951;BME280;45812;53.540;9.774;2023-05-23T00:24:35;101259.63;;;17.19;100.00
59951;BME280;45812;53.540;9.774;2023-05-23T00:27:01;101256.72;;;17.21;100.00
59951;BME280;45812;53.540;9.774;2023-05-23T00:29:26;101252.81;;;17.23;100.00
59951;BME280;45812;53.540;9.774;2023-05-23T00:31:51;101250.13;;;17.23;100.00
59951;BME280;45812;53.540;9.774;2023-05-23T00:34:17;101245.72;;;17.16;100.00
59951;BME280;45812;53.540;9.774;2023-05-23T00:36:42;101246.88;;;17.07;100.00
59951;BME280;45812;53.540;9.774;2023-05-23T00:39:11;101237.53;;;17.03;100.00
59951;BME280;45812;53.540;9.774;2023-05-23T00:41:47;101236.06;;;17.00;100.00
59951;BME280;45812;53.540;9.774;2023-05-23T00:44:12;101233.38;;;17.00;100.00
59951;BME280;45812;53.540;9.774;2023-05-23T00:46:38;101229.03;;;16.99;100.00
59951;BME280;45812;53.540;9.774;2023-05-23T00:49:04;101236.06;;;17.00;100.00
59951;BME280;45812;53.540;9.774;2023-05-23T00:51:30;101232.13;;;16.96;100.00
59951;BME280;45812;53.540;9.774;2023-05-23T00:53:56;101235.00;;;16.94;100.00
59951;BME280;45812;53.540;9.774;2023-05-23T00:56:23;101241.22;;;16.95;100.00
59951;BME280;45812;53.540;9.774;2023-05-23T00:58:50;101239.75;;;16.92;100.00
59951;BME280;45812;53.540;9.774;2023-05-23T01:01:16;101236.16;;;16.85;100.00
59951;BME280;45812;53.540;9.774;2023-05-23T01:03:41;101226.28;;;16.71;100.00
59951;BME280;45812;53.540;9.774;2023-05-23T01:06:10;101231.34;;;16.59;100.00
59951;BME280;45812;53.540;9.774;2023-05-23T01:08:35;101234.13;;;16.51;100.00
59951;BME280;45812;53.540;9.774;2023-05-23T01:11:05;101229.53;;;16.45;100.00
59951;BME280;45812;53.540;9.774;2023-05-23T01:13:44;101232.16;;;16.39;100.00
59951;BME280;45812;53.540;9.774;2023-05-23T01:16:32;101235.13;;;16.29;100.00
59951;BME280;45812;53.540;9.774;2023-05-23T01:19:15;101237.84;;;16.14;100.00
59951;BME280;45812;53.540;9.774;2023-05-23T01:21:43;101234.00;;;16.02;100.00
59951;BME280;45812;53.540;9.774;2023-05-23T01:24:21;101233.91;;;15.95;100.00
59951;BME280;45812;53.540;9.774;2023-05-23T01:29:30;101241.41;;;15.70;100.00
59951;BME280;45812;53.540;9.774;2023-05-23T01:31:57;101242.50;;;15.61;100.00
59951;BME280;45812;53.540;9.774;2023-05-23T01:34:23;101246.09;;;15.54;100.00
59951;BME280;45812;53.540;9.774;2023-05-23T01:36:49;101244.63;;;15.51;100.00
59951;BME280;45812;53.540;9.774;2023-05-23T01:39:17;101243.69;;;15.44;100.00
59951;BME280;45812;53.540;9.774;2023-05-23T01:41:43;101236.94;;;15.33;100.00
59951;BME280;45812;53.540;9.774;2023-05-23T01:44:08;101248.59;;;15.26;100.00
59951;BME280;45812;53.540;9.774;2023-05-23T01:46:34;101233.56;;;15.17;100.00
59951;BME280;45812;53.540;9.774;2023-05-23T01:49:01;101241.88;;;15.07;100.00
59951;BME280;45812;53.540;9.774;2023-05-23T01:51:28;101246.75;;;15.03;100.00
59951;BME280;45812;53.540;9.774;2023-05-23T01:53:55;101239.91;;;15.01;100.00
59951;BME280;45812;53.540;9.774;2023-05-23T01:56:20;101252.66;;;14.99;100.00
59951;BME280;45812;53.540;9.774;2023-05-23T01:58:46;101250.16;;;14.97;100.00
59951;BME280;45812;53.540;9.774;2023-05-23T02:01:12;101246.19;;;14.93;100.00
59951;BME280;45812;53.540;9.774;2023-05-23T02:03:37;101240.03;;;14.84;100.00
59951;BME280;45812;53.540;9.774;2023-05-23T02:06:03;101239.03;;;14.85;100.00
59951;BME280;45812;53.540;9.774;2023-05-23T02:08:28;101239.69;;;14.88;100.00
59951;BME280;45812;53.540;9.774;2023-05-23T02:10:53;101239.19;;;14.84;100.00
59951;BME280;45812;53.540;9.774;2023-05-23T02:13:19;101238.19;;;14.85;100.00
59951;BME280;45812;53.540;9.774;2023-05-23T02:15:44;101240.53;;;14.88;100.00
59951;BME280;45812;53.540;9.774;2023-05-23T02:18:09;101239.84;;;14.86;100.00
59951;BME280;45812;53.540;9.774;2023-05-23T02:20:34;101236.84;;;14.89;100.00
59951;BME280;45812;53.540;9.774;2023-05-23T02:23:00;101247.84;;;14.94;100.00
59951;BME280;45812;53.540;9.774;2023-05-23T02:25:25;101244.34;;;14.94;100.00
59951;BME280;45812;53.540;9.774;2023-05-23T02:27:50;101247.56;;;14.89;100.00
59951;BME280;45812;53.540;9.774;2023-05-23T02:30:16;101250.88;;;14.91;100.00
59951;BME280;45812;53.540;9.774;2023-05-23T02:32:41;101252.19;;;14.95;100.00
59951;BME280;45812;53.540;9.774;2023-05-23T02:35:07;101254.50;;;14.98;100.00
59951;BME280;45812;53.540;9.774;2023-05-23T02:37:32;101255.88;;;14.94;100.00
59951;BME280;45812;53.540;9.774;2023-05-23T02:39:57;101257.91;;;14.92;100.00
59951;BME280;45812;53.540;9.774;2023-05-23T02:42:23;101263.28;;;14.92;100.00
59951;BME280;45812;53.540;9.774;2023-05-23T02:44:48;101262.91;;;14.95;100.00
59951;BME280;45812;53.540;9.774;2023-05-23T02:47:13;101251.72;;;14.92;100.00
59951;BME280;45812;53.540;9.774;2023-05-23T02:49:38;101254.91;;;14.87;100.00
59951;BME280;45812;53.540;9.774;2023-05-23T02:52:04;101251.59;;;14.85;100.00
59951;BME280;45812;53.540;9.774;2023-05-23T02:54:29;101255.66;;;14.81;100.00
59951;BME280;45812;53.540;9.774;2023-05-23T02:56:55;101253.97;;;14.80;100.00
59951;BME280;45812;53.540;9.774;2023-05-23T02:59:20;101255.66;;;14.81;100.00
59951;BME280;45812;53.540;9.774;2023-05-23T03:01:47;101256.66;;;14.80;100.00
59951;BME280;45812;53.540;9.774;2023-05-23T03:04:12;101259.34;;;14.80;100.00
59951;BME280;45812;53.540;9.774;2023-05-23T03:06:38;101251.84;;;14.75;100.00
59951;BME280;45812;53.540;9.774;2023-05-23T03:09:04;101253.88;;;14.73;100.00
59951;BME280;45812;53.540;9.774;2023-05-23T03:11:29;101261.78;;;14.67;100.00
59951;BME280;45812;53.540;9.774;2023-05-23T03:13:54;101262.97;;;14.64;100.00
59951;BME280;45812;53.540;9.774;2023-05-23T03:16:21;101259.81;;;14.61;100.00
59951;BME280;45812;53.540;9.774;2023-05-23T03:18:46;101242.53;;;14.63;100.00
59951;BME280;45812;53.540;9.774;2023-05-23T03:21:11;101258.91;;;14.68;100.00
59951;BME280;45812;53.540;9.774;2023-05-23T03:23:37;101255.91;;;14.71;100.00
59951;BME280;45812;53.540;9.774;2023-05-23T03:26:02;101259.72;;;14.77;100.00
59951;BME280;45812;53.540;9.774;2023-05-23T03:28:29;101257.22;;;14.75;100.00
59951;BME280;45812;53.540;9.774;2023-05-23T03:30:55;101256.56;;;14.73;100.00
59951;BME280;45812;53.540;9.774;2023-05-23T03:33:20;101254.16;;;14.78;100.00
59951;BME280;45812;53.540;9.774;2023-05-23T03:35:45;101253.63;;;14.83;100.00
59951;BME280;45812;53.540;9.774;2023-05-23T03:38:10;101240.16;;;14.91;100.00
59951;BME280;45812;53.540;9.774;2023-05-23T03:40:36;101248.50;;;14.96;100.00
59951;BME280;45812;53.540;9.774;2023-05-23T03:43:03;101254.97;;;15.02;100.00
59951;BME280;45812;53.540;9.774;2023-05-23T03:45:29;101258.03;;;14.99;100.00
59951;BME280;45812;53.540;9.774;2023-05-23T03:47:55;101246.66;;;14.97;100.00
59951;BME280;45812;53.540;9.774;2023-05-23T03:50:20;101246.47;;;14.98;100.00
59951;BME280;45812;53.540;9.774;2023-05-23T03:52:45;101249.78;;;15.00;100.00
59951;BME280;45812;53.540;9.774;2023-05-23T03:55:10;101250.81;;;14.99;100.00
59951;BME280;45812;53.540;9.774;2023-05-23T03:57:36;101252.84;;;14.97;100.00
59951;BME280;45812;53.540;9.774;2023-05-23T04:00:03;101259.03;;;14.98;100.00
59951;BME280;45812;53.540;9.774;2023-05-23T04:02:30;101261.53;;;14.99;100.00
59951;BME280;45812;53.540;9.774;2023-05-23T04:04:56;101261.72;;;14.98;100.00
59951;BME280;45812;53.540;9.774;2023-05-23T04:07:22;101254.03;;;14.95;100.00
59951;BME280;45812;53.540;9.774;2023-05-23T04:09:47;101259.59;;;14.93;100.00
59951;BME280;45812;53.540;9.774;2023-05-23T04:12:12;101262.44;;;14.92;100.00
59951;BME280;45812;53.540;9.774;2023-05-23T04:14:37;101257.91;;;14.92;100.00
59951;BME280;45812;53.540;9.774;2023-05-23T04:17:03;101257.44;;;14.89;100.00
59951;BME280;45812;53.540;9.774;2023-05-23T04:19:29;101256.94;;;14.85;100.00
59951;BME280;45812;53.540;9.774;2023-05-23T04:21:55;101255.66;;;14.81;100.00
59951;BME280;45812;53.540;9.774;2023-05-23T04:24:20;101257.31;;;14.82;100.00
59951;BME280;45812;53.540;9.774;2023-05-23T04:26:46;101266.00;;;14.84;100.00
59951;BME280;45812;53.540;9.774;2023-05-23T04:29:11;101261.84;;;14.81;100.00
59951;BME280;45812;53.540;9.774;2023-05-23T04:31:37;101265.53;;;14.80;100.00
59951;BME280;45812;53.540;9.774;2023-05-23T04:34:02;101269.88;;;14.81;100.00
59951;BME280;45812;53.540;9.774;2023-05-23T04:36:28;101276.53;;;14.85;100.00
59951;BME280;45812;53.540;9.774;2023-05-23T04:38:54;101269.34;;;14.86;100.00
59951;BME280;45812;53.540;9.774;2023-05-23T04:41:19;101274.53;;;14.88;100.00
59951;BME280;45812;53.540;9.774;2023-05-23T04:43:47;101273.53;;;14.89;100.00
59951;BME280;45812;53.540;9.774;2023-05-23T04:46:12;101269.66;;;14.91;100.00
59951;BME280;45812;53.540;9.774;2023-05-23T04:48:38;101274.09;;;14.99;100.00
59951;BME280;45812;53.540;9.774;2023-05-23T04:51:03;101266.34;;;15.04;100.00
59951;BME280;45812;53.540;9.774;2023-05-23T04:53:33;101278.75;;;15.05;100.00
59951;BME280;45812;53.540;9.774;2023-05-23T04:55:58;101273.56;;;15.03;100.00
59951;BME280;45812;53.540;9.774;2023-05-23T04:58:24;101272.72;;;15.03;100.00
59951;BME280;45812;53.540;9.774;2023-05-23T05:00:49;101277.63;;;14.99;100.00
59951;BME280;45812;53.540;9.774;2023-05-23T05:03:14;101281.97;;;15.00;100.00
59951;BME280;45812;53.540;9.774;2023-05-23T05:05:40;101277.63;;;14.99;100.00
59951;BME280;45812;53.540;9.774;2023-05-23T05:08:05;101274.09;;;14.99;100.00
59951;BME280;45812;53.540;9.774;2023-05-23T05:10:31;101274.09;;;14.99;100.00
59951;BME280;45812;53.540;9.774;2023-05-23T05:12:57;101282.97;;;14.99;100.00
59951;BME280;45812;53.540;9.774;2023-05-23T05:15:22;101284.66;;;15.00;100.00
59951;BME280;45812;53.540;9.774;2023-05-23T05:17:47;101287.63;;;15.05;100.00
59951;BME280;45812;53.540;9.774;2023-05-23T05:20:12;101281.91;;;15.08;100.00
59951;BME280;45812;53.540;9.774;2023-05-23T05:22:38;101279.56;;;15.05;100.00
59951;BME280;45812;53.540;9.774;2023-05-23T05:25:08;101286.97;;;15.03;100.00
59951;BME280;45812;53.540;9.774;2023-05-23T05:27:34;101272.72;;;15.03;100.00
59951;BME280;45812;53.540;9.774;2023-05-23T05:30:05;101286.13;;;15.03;100.00
59951;BME280;45812;53.540;9.774;2023-05-23T05:32:31;101284.00;;;14.98;100.00
59951;BME280;45812;53.540;9.774;2023-05-23T05:34:58;101288.34;;;14.99;100.00
59951;BME280;45812;53.540;9.774;2023-05-23T05:37:24;101283.63;;;15.01;100.00
59951;BME280;45812;53.540;9.774;2023-05-23T05:39:49;101282.63;;;15.02;100.00
59951;BME280;45812;53.540;9.774;2023-05-23T05:42:14;101282.94;;;15.07;100.00
59951;BME280;45812;53.540;9.774;2023-05-23T05:44:39;101286.25;;;15.09;100.00
59951;BME280;45812;53.540;9.774;2023-05-23T05:47:05;101280.53;;;15.12;100.00
59951;BME280;45812;53.540;9.774;2023-05-23T05:49:30;101279.25;;;15.08;100.00
59951;BME280;45812;53.540;9.774;2023-05-23T05:51:55;101284.41;;;15.10;100.00
59951;BME280;45812;53.540;9.774;2023-05-23T05:54:20;101284.88;;;15.13;100.00
59951;BME280;45812;53.540;9.774;2023-05-23T05:56:46;101302.09;;;15.19;100.00
59951;BME280;45812;53.540;9.774;2023-05-23T05:59:11;101288.03;;;15.17;100.00
59951;BME280;45812;53.540;9.774;2023-05-23T06:01:36;101308.66;;;15.17;100.00
59951;BME280;45812;53.540;9.774;2023-05-23T06:04:02;101308.19;;;15.13;100.00
59951;BME280;45812;53.540;9.774;2023-05-23T06:06:27;101303.19;;;15.10;100.00
59951;BME280;45812;53.540;9.774;2023-05-23T06:08:52;101309.75;;;15.07;100.00
59951;BME280;45812;53.540;9.774;2023-05-23T06:11:18;101310.91;;;15.05;100.00
59951;BME280;45812;53.540;9.774;2023-05-23T06:13:43;101327.72;;;14.99;100.00
59951;BME280;45812;53.540;9.774;2023-05-23T06:16:08;101325.94;;;14.91;100.00
59951;BME280;45812;53.540;9.774;2023-05-23T06:18:33;101317.94;;;14.83;100.00
59951;BME280;45812;53.540;9.774;2023-05-23T06:20:59;101321.78;;;14.89;100.00
59951;BME280;45812;53.540;9.774;2023-05-23T06:23:24;101316.88;;;14.92;100.00
59951;BME280;45812;53.540;9.774;2023-05-23T06:25:49;101325.59;;;14.94;100.00
59951;BME280;45812;53.540;9.774;2023-05-23T06:28:15;101317.19;;;14.97;100.00
59951;BME280;45812;53.540;9.774;2023-05-23T06:30:40;101328.56;;;14.99;100.00
59951;BME280;45812;53.540;9.774;2023-05-23T06:33:05;101339.56;;;15.04;100.00
59951;BME280;45812;53.540;9.774;2023-05-23T06:35:30;101342.75;;;15.08;100.00
59951;BME280;45812;53.540;9.774;2023-05-23T06:37:56;101350.13;;;15.06;100.00
59951;BME280;45812;53.540;9.774;2023-05-23T06:40:21;101350.47;;;15.03;100.00
59951;BME280;45812;53.540;9.774;2023-05-23T06:42:46;101355.19;;;15.01;100.00
59951;BME280;45812;53.540;9.774;2023-05-23T06:45:12;101357.50;;;15.04;100.00
59951;BME280;45812;53.540;9.774;2023-05-23T06:47:37;101350.13;;;15.06;100.00
59951;BME280;45812;53.540;9.774;2023-05-23T06:50:02;101355.16;;;15.09;100.00
59951;BME280;45812;53.540;9.774;2023-05-23T06:52:28;101357.47;;;15.12;100.00
59951;BME280;45812;53.540;9.774;2023-05-23T06:54:53;101356.28;;;15.14;100.00
59951;BME280;45812;53.540;9.774;2023-05-23T06:57:18;101363.31;;;15.15;100.00
59951;BME280;45812;53.540;9.774;2023-05-23T06:59:43;101368.00;;;15.13;100.00
59951;BME280;45812;53.540;9.774;2023-05-23T07:02:09;101375.88;;;15.15;100.00
59951;BME280;45812;53.540;9.774;2023-05-23T07:04:34;101369.03;;;15.12;100.00
59951;BME280;45812;53.540;9.774;2023-05-23T07:06:59;101373.38;;;15.13;100.00
59951;BME280;45812;53.540;9.774;2023-05-23T07:09:24;101377.34;;;15.18;100.00
59951;BME280;45812;53.540;9.774;2023-05-23T07:11:50;101377.84;;;15.21;100.00
59951;BME280;45812;53.540;9.774;2023-05-23T07:14:15;101384.69;;;15.24;100.00
59951;BME280;45812;53.540;9.774;2023-05-23T07:16:40;101390.59;;;15.19;100.00
59951;BME280;45812;53.540;9.774;2023-05-23T07:19:05;101385.22;;;15.19;100.00
59951;BME280;45812;53.540;9.774;2023-05-23T07:21:31;101385.41;;;15.18;100.00
59951;BME280;45812;53.540;9.774;2023-05-23T07:23:56;101395.78;;;15.21;100.00
59951;BME280;45812;53.540;9.774;2023-05-23T07:26:21;101402.16;;;15.20;100.00
59951;BME280;45812;53.540;9.774;2023-05-23T07:28:47;101412.69;;;15.21;100.00
59951;BME280;45812;53.540;9.774;2023-05-23T07:31:12;101396.09;;;15.26;100.00
59951;BME280;45812;53.540;9.774;2023-05-23T07:33:38;101401.47;;;15.26;100.00
59951;BME280;45812;53.540;9.774;2023-05-23T07:36:03;101400.44;;;15.27;100.00
59951;BME280;45812;53.540;9.774;2023-05-23T07:38:28;101416.66;;;15.33;100.00
59951;BME280;45812;53.540;9.774;2023-05-23T07:40:54;101414.97;;;15.32;100.00
59951;BME280;45812;53.540;9.774;2023-05-23T07:43:19;101417.78;;;15.39;100.00
59951;BME280;45812;53.540;9.774;2023-05-23T07:45:44;101425.13;;;15.45;100.00
59951;BME280;45812;53.540;9.774;2023-05-23T07:48:10;101416.16;;;15.53;100.00
59951;BME280;45812;53.540;9.774;2023-05-23T07:50:36;101430.31;;;15.69;100.00
59951;BME280;45812;53.540;9.774;2023-05-23T07:53:03;101429.63;;;15.90;100.00
59951;BME280;45812;53.540;9.774;2023-05-23T07:55:28;101434.75;;;16.00;100.00
59951;BME280;45812;53.540;9.774;2023-05-23T07:57:54;101435.41;;;16.02;100.00
59951;BME280;45812;53.540;9.774;2023-05-23T08:00:20;101436.28;;;15.94;100.00
59951;BME280;45812;53.540;9.774;2023-05-23T08:02:45;101440.91;;;15.86;100.00
59951;BME280;45812;53.540;9.774;2023-05-23T08:05:11;101443.19;;;15.74;100.00
59951;BME280;45812;53.540;9.774;2023-05-23T08:07:36;101448.44;;;15.67;100.00
59951;BME280;45812;53.540;9.774;2023-05-23T08:10:01;101458.06;;;15.62;100.00
59951;BME280;45812;53.540;9.774;2023-05-23T08:12:26;101447.88;;;15.49;100.00
59951;BME280;45812;53.540;9.774;2023-05-23T08:14:52;101461.06;;;15.36;100.00
59951;BME280;45812;53.540;9.774;2023-05-23T08:17:17;101462.25;;;15.33;100.00
59951;BME280;45812;53.540;9.774;2023-05-23T08:19:42;101465.28;;;15.30;100.00
59951;BME280;45812;53.540;9.774;2023-05-23T08:22:08;101462.63;;;15.22;100.00
59951;BME280;45812;53.540;9.774;2023-05-23T08:24:33;101464.56;;;15.13;100.00
59951;BME280;45812;53.540;9.774;2023-05-23T08:26:58;101479.31;;;15.09;100.00
59951;BME280;45812;53.540;9.774;2023-05-23T08:29:24;101484.19;;;15.06;100.00
59951;BME280;45812;53.540;9.774;2023-05-23T08:31:49;101475.41;;;14.81;100.00
59951;BME280;45812;53.540;9.774;2023-05-23T08:34:14;101488.22;;;14.63;100.00
59951;BME280;45812;53.540;9.774;2023-05-23T08:36:40;101493.44;;;14.48;100.00
59951;BME280;45812;53.540;9.774;2023-05-23T08:39:07;101504.19;;;14.32;100.00
59951;BME280;45812;53.540;9.774;2023-05-23T08:41:32;101503.03;;;14.18;100.00
59951;BME280;45812;53.540;9.774;2023-05-23T08:43:58;101501.34;;;14.09;100.00
59951;BME280;45812;53.540;9.774;2023-05-23T08:46:24;101526.78;;;14.05;100.00
59951;BME280;45812;53.540;9.774;2023-05-23T08:48:51;101510.75;;;13.97;100.00
59951;BME280;45812;53.540;9.774;2023-05-23T08:51:20;101525.44;;;13.92;100.00
59951;BME280;45812;53.540;9.774;2023-05-23T08:53:47;101518.75;;;13.88;100.00
59951;BME280;45812;53.540;9.774;2023-05-23T08:56:13;101518.56;;;13.90;100.00
59951;BME280;45812;53.540;9.774;2023-05-23T08:58:39;101525.94;;;13.88;100.00
59951;BME280;45812;53.540;9.774;2023-05-23T09:01:08;101533.63;;;13.83;100.00
59951;BME280;45812;53.540;9.774;2023-05-23T09:03:38;101528.78;;;13.86;100.00
59951;BME280;45812;53.540;9.774;2023-05-23T09:06:09;101530.13;;;13.90;100.00
59951;BME280;45812;53.540;9.774;2023-05-23T09:08:35;101539.00;;;13.83;100.00
59951;BME280;45812;53.540;9.774;2023-05-23T09:11:02;101548.34;;;13.71;100.00
59951;BME280;45812;53.540;9.774;2023-05-23T09:13:30;101553.84;;;13.69;100.00
59951;BME280;45812;53.540;9.774;2023-05-23T09:18:43;101561.53;;;13.72;100.00
59951;BME280;45812;53.540;9.774;2023-05-23T09:21:11;101567.94;;;13.79;100.00
59951;BME280;45812;53.540;9.774;2023-05-23T09:23:38;101571.78;;;13.77;100.00
59951;BME280;45812;53.540;9.774;2023-05-23T09:26:06;101574.94;;;13.80;100.00
59951;BME280;45812;53.540;9.774;2023-05-23T09:28:32;101579.63;;;13.78;100.00
59951;BME280;45812;53.540;9.774;2023-05-23T09:30:59;101586.31;;;13.82;100.00
59951;BME280;45812;53.540;9.774;2023-05-23T09:33:49;101580.50;;;13.95;100.00
59951;BME280;45812;53.540;9.774;2023-05-23T09:36:14;101594.53;;;14.05;100.00
59951;BME280;45812;53.540;9.774;2023-05-23T09:38:42;101586.69;;;14.04;100.00
59951;BME280;45812;53.540;9.774;2023-05-23T09:41:08;101597.88;;;14.07;100.00
59951;BME280;45812;53.540;9.774;2023-05-23T09:43:37;101596.25;;;14.14;100.00
59951;BME280;45812;53.540;9.774;2023-05-23T09:46:08;101603.75;;;14.11;100.00
59951;BME280;45812;53.540;9.774;2023-05-23T09:48:33;101605.41;;;14.04;100.00
59951;BME280;45812;53.540;9.774;2023-05-23T09:51:03;101604.75;;;14.02;100.00
59951;BME280;45812;53.540;9.774;2023-05-23T09:53:28;101603.75;;;14.11;100.00
59951;BME280;45812;53.540;9.774;2023-05-23T09:55:54;101612.44;;;14.13;98.87
59951;BME280;45812;53.540;9.774;2023-05-23T09:58:22;101608.94;;;14.12;99.10
59951;BME280;45812;53.540;9.774;2023-05-23T10:00:52;101602.75;;;14.12;97.58
59951;BME280;45812;53.540;9.774;2023-05-23T10:03:23;101614.00;;;14.32;98.21
59951;BME280;45812;53.540;9.774;2023-05-23T10:05:59;101612.66;;;14.44;96.59
59951;BME280;45812;53.540;9.774;2023-05-23T10:13:24;101627.84;;;14.27;96.42
59951;BME280;45812;53.540;9.774;2023-05-23T10:15:54;101631.03;;;14.22;94.66
59951;BME280;45812;53.540;9.774;2023-05-23T10:18:25;101625.69;;;14.14;93.68
59951;BME280;45812;53.540;9.774;2023-05-23T10:20:56;101635.56;;;14.14;92.05
59951;BME280;45812;53.540;9.774;2023-05-23T10:23:26;101631.19;;;14.29;92.90
59951;BME280;45812;53.540;9.774;2023-05-23T10:25:52;101636.78;;;14.60;90.46
59951;BME280;45812;53.540;9.774;2023-05-23T10:28:18;101641.88;;;15.02;90.13
59951;BME280;45812;53.540;9.774;2023-05-23T10:30:44;101623.91;;;15.19;86.25
59951;BME280;45812;53.540;9.774;2023-05-23T10:33:11;101655.59;;;15.15;85.27
59951;BME280;45812;53.540;9.774;2023-05-23T10:36:13;101662.19;;;14.97;86.76
59951;BME280;45812;53.540;9.774;2023-05-23T10:38:50;101646.97;;;14.81;87.04
59951;BME280;45812;53.540;9.774;2023-05-23T10:41:28;101654.13;;;15.05;86.06
59951;BME280;45812;53.540;9.774;2023-05-23T10:44:09;101669.19;;;15.06;85.39
59951;BME280;45812;53.540;9.774;2023-05-23T10:46:53;101667.88;;;15.02;85.05
59951;BME280;45812;53.540;9.774;2023-05-23T10:49:19;101678.94;;;15.07;86.54
59951;BME280;45812;53.540;9.774;2023-05-23T10:51:48;101662.28;;;15.28;85.27
59951;BME280;45812;53.540;9.774;2023-05-23T10:54:14;101668.28;;;15.38;82.23
59951;BME280;45812;53.540;9.774;2023-05-23T10:56:39;101675.94;;;15.65;81.00
59951;BME280;45812;53.540;9.774;2023-05-23T10:59:05;101686.84;;;15.95;75.77
59951;BME280;45812;53.540;9.774;2023-05-23T11:01:30;101685.53;;;15.91;74.29
59951;BME280;45812;53.540;9.774;2023-05-23T11:04:04;101681.19;;;15.90;74.57
59951;BME280;45812;53.540;9.774;2023-05-23T11:09:04;101684.50;;;16.00;73.40
59951;BME280;45812;53.540;9.774;2023-05-23T11:12:02;101698.78;;;16.23;73.42
59951;BME280;45812;53.540;9.774;2023-05-23T11:16:58;101686.56;;;17.34;65.08
59951;BME280;45812;53.540;9.774;2023-05-23T11:19:25;101696.47;;;17.92;63.43
59951;BME280;45812;53.540;9.774;2023-05-23T11:24:20;101710.25;;;18.40;58.05
59951;BME280;45812;53.540;9.774;2023-05-23T11:26:53;101701.25;;;18.11;59.60
59951;BME280;45812;53.540;9.774;2023-05-23T11:29:23;101708.50;;;18.11;56.92
59951;BME280;45812;53.540;9.774;2023-05-23T11:31:49;101718.09;;;17.99;60.21
59951;BME280;45812;53.540;9.774;2023-05-23T11:34:14;101721.91;;;17.60;60.77
59951;BME280;45812;53.540;9.774;2023-05-23T11:36:40;101720.13;;;17.08;61.40
59951;BME280;45812;53.540;9.774;2023-05-23T11:39:05;101721.53;;;16.58;64.47
59951;BME280;45812;53.540;9.774;2023-05-23T11:41:30;101723.69;;;16.40;67.33
59951;BME280;45812;53.540;9.774;2023-05-23T11:43:57;101717.28;;;16.18;66.23
59951;BME280;45812;53.540;9.774;2023-05-23T11:46:23;101728.78;;;15.96;64.90
59951;BME280;45812;53.540;9.774;2023-05-23T11:48:48;101738.63;;;15.81;66.37
59951;BME280;45812;53.540;9.774;2023-05-23T11:51:14;101732.13;;;15.98;66.13
59951;BME280;45812;53.540;9.774;2023-05-23T11:53:40;101745.03;;;17.40;60.82
59951;BME280;45812;53.540;9.774;2023-05-23T11:56:06;101729.41;;;19.44;51.67
59951;BME280;45812;53.540;9.774;2023-05-23T11:58:36;101725.66;;;20.34;46.95
59951;BME280;45812;53.540;9.774;2023-05-23T12:01:03;101727.44;;;20.07;46.75
59951;BME280;45812;53.540;9.774;2023-05-23T12:03:29;101715.91;;;19.44;49.08
59951;BME280;45812;53.540;9.774;2023-05-23T12:05:56;101723.41;;;19.83;48.01
59951;BME280;45812;53.540;9.774;2023-05-23T12:08:21;101726.63;;;20.06;47.05
59951;BME280;45812;53.540;9.774;2023-05-23T12:10:57;101734.16;;;19.70;47.86
59951;BME280;45812;53.540;9.774;2023-05-23T12:13:24;101731.72;;;19.47;48.94
59951;BME280;45812;53.540;9.774;2023-05-23T12:15:57;101730.97;;;19.31;49.48
59951;BME280;45812;53.540;9.774;2023-05-23T12:18:26;101731.06;;;19.45;49.01
59951;BME280;45812;53.540;9.774;2023-05-23T12:20:52;101733.38;;;19.76;45.17
59951;BME280;45812;53.540;9.774;2023-05-23T12:23:19;101735.44;;;22.31;41.00
59951;BME280;45812;53.540;9.774;2023-05-23T12:25:48;101737.81;;;23.89;36.47
59951;BME280;45812;53.540;9.774;2023-05-23T12:28:14;101733.97;;;23.60;36.96
59951;BME280;45812;53.540;9.774;2023-05-23T12:30:41;101738.13;;;23.81;36.49
59951;BME280;45812;53.540;9.774;2023-05-23T12:33:07;101743.44;;;22.83;38.59
59951;BME280;45812;53.540;9.774;2023-05-23T12:35:32;101741.53;;;22.20;38.99
59951;BME280;45812;53.540;9.774;2023-05-23T12:37:58;101753.66;;;21.33;41.70
59951;BME280;45812;53.540;9.774;2023-05-23T12:40:23;101754.22;;;20.43;43.55
59951;BME280;45812;53.540;9.774;2023-05-23T12:42:50;101758.59;;;19.55;47.30
59951;BME280;45812;53.540;9.774;2023-05-23T12:45:16;101773.97;;;19.05;47.77
59951;BME280;45812;53.540;9.774;2023-05-23T12:47:41;101769.44;;;18.63;47.99
59951;BME280;45812;53.540;9.774;2023-05-23T12:50:07;101770.78;;;18.73;46.64
59951;BME280;45812;53.540;9.774;2023-05-23T12:52:32;101759.50;;;18.49;47.64
59951;BME280;45812;53.540;9.774;2023-05-23T12:54:57;101765.09;;;18.47;48.79
59951;BME280;45812;53.540;9.774;2023-05-23T12:57:22;101779.50;;;19.74;45.76